sensor_id;sensor_type;location;lat;lon;timestamp;P1;durP1;ratioP1;P2;durP2;ratioP2
68866;SDS011;56451;44.804;20.476;2022-09-11T00:00:38;5.95;;;2.70;;
68866;SDS011;56451;44.804;20.476;2022-09-11T00:03:04;6.65;;;2.70;;
68866;SDS011;56451;44.804;20.476;2022-09-11T00:05:32;3.83;;;2.45;;
68866;SDS011;56451;44.804;20.476;2022-09-11T00:08:02;5.40;;;2.80;;
68866;SDS011;56451;44.804;20.476;2022-09-11T00:10:28;4.73;;;2.87;;
68866;SDS011;56451;44.804;20.476;2022-09-11T00:12:54;5.03;;;2.50;;
68866;SDS011;56451;44.804;20.476;2022-09-11T00:15:19;4.20;;;2.73;;
68866;SDS011;56451;44.804;20.476;2022-09-11T00:17:45;4.28;;;2.85;;
68866;SDS011;56451;44.804;20.476;2022-09-11T00:20:11;5.10;;;2.73;;
68866;SDS011;56451;44.804;20.476;2022-09-11T00:22:36;4.45;;;2.88;;
68866;SDS011;56451;44.804;20.476;2022-09-11T00:25:02;4.97;;;3.00;;
68866;SDS011;56451;44.804;20.476;2022-09-11T00:27:28;4.43;;;2.83;;
68866;SDS011;56451;44.804;20.476;2022-09-11T00:29:56;4.40;;;2.85;;
68866;SDS011;56451;44.804;20.476;2022-09-11T00:32:21;7.17;;;3.13;;
68866;SDS011;56451;44.804;20.476;2022-09-11T00:34:48;7.13;;;2.90;;
68866;SDS011;56451;44.804;20.476;2022-09-11T00:37:14;4.10;;;2.58;;
68866;SDS011;56451;44.804;20.476;2022-09-11T00:39:40;6.53;;;2.47;;
68866;SDS011;56451;44.804;20.476;2022-09-11T00:42:08;4.00;;;2.85;;
68866;SDS011;56451;44.804;20.476;2022-09-11T00:47:00;4.45;;;2.65;;
68866;SDS011;56451;44.804;20.476;2022-09-11T00:52:04;4.13;;;2.80;;
68866;SDS011;56451;44.804;20.476;2022-09-11T00:54:36;7.28;;;3.22;;
68866;SDS011;56451;44.804;20.476;2022-09-11T00:57:10;5.87;;;2.73;;
68866;SDS011;56451;44.804;20.476;2022-09-11T00:59:38;6.80;;;3.10;;
68866;SDS011;56451;44.804;20.476;2022-09-11T01:02:07;2.58;;;2.25;;
68866;SDS011;56451;44.804;20.476;2022-09-11T01:04:38;5.43;;;2.60;;
68866;SDS011;56451;44.804;20.476;2022-09-11T01:07:04;8.10;;;2.75;;
68866;SDS011;56451;44.804;20.476;2022-09-11T01:09:30;5.50;;;2.93;;
68866;SDS011;56451;44.804;20.476;2022-09-11T01:14:56;5.28;;;2.75;;
68866;SDS011;56451;44.804;20.476;2022-09-11T01:17:28;4.45;;;3.15;;
68866;SDS011;56451;44.804;20.476;2022-09-11T01:20:03;4.32;;;2.85;;
68866;SDS011;56451;44.804;20.476;2022-09-11T01:22:50;5.27;;;3.43;;
68866;SDS011;56451;44.804;20.476;2022-09-11T01:28:41;7.68;;;3.28;;
68866;SDS011;56451;44.804;20.476;2022-09-11T01:31:11;6.78;;;2.80;;
68866;SDS011;56451;44.804;20.476;2022-09-11T01:33:54;3.75;;;2.80;;
68866;SDS011;56451;44.804;20.476;2022-09-11T01:37:07;5.97;;;2.77;;
68866;SDS011;56451;44.804;20.476;2022-09-11T01:39:20;4.80;;;3.10;;
68866;SDS011;56451;44.804;20.476;2022-09-11T01:41:58;5.72;;;3.40;;
68866;SDS011;56451;44.804;20.476;2022-09-11T01:44:32;6.72;;;2.90;;
68866;SDS011;56451;44.804;20.476;2022-09-11T01:47:11;5.95;;;2.50;;
68866;SDS011;56451;44.804;20.476;2022-09-11T01:49:39;8.53;;;2.60;;
68866;SDS011;56451;44.804;20.476;2022-09-11T01:52:10;3.85;;;2.40;;
68866;SDS011;56451;44.804;20.476;2022-09-11T01:54:45;4.13;;;2.25;;
68866;SDS011;56451;44.804;20.476;2022-09-11T01:57:23;3.67;;;2.25;;
68866;SDS011;56451;44.804;20.476;2022-09-11T01:59:57;3.53;;;1.92;;
68866;SDS011;56451;44.804;20.476;2022-09-11T02:02:33;4.57;;;1.60;;
68866;SDS011;56451;44.804;20.476;2022-09-11T02:05:14;3.72;;;1.80;;
68866;SDS011;56451;44.804;20.476;2022-09-11T02:08:17;2.83;;;1.60;;
68866;SDS011;56451;44.804;20.476;2022-09-11T02:10:41;3.42;;;1.50;;
68866;SDS011;56451;44.804;20.476;2022-09-11T02:19:40;3.10;;;1.45;;
68866;SDS011;56451;44.804;20.476;2022-09-11T02:22:06;2.65;;;1.73;;
68866;SDS011;56451;44.804;20.476;2022-09-11T02:24:35;7.40;;;1.83;;
68866;SDS011;56451;44.804;20.476;2022-09-11T02:27:02;4.35;;;1.67;;
68866;SDS011;56451;44.804;20.476;2022-09-11T02:29:31;2.60;;;1.70;;
68866;SDS011;56451;44.804;20.476;2022-09-11T02:31:58;2.30;;;1.20;;
68866;SDS011;56451;44.804;20.476;2022-09-11T02:34:26;3.65;;;1.63;;
68866;SDS011;56451;44.804;20.476;2022-09-11T02:37:07;1.83;;;1.20;;
68866;SDS011;56451;44.804;20.476;2022-09-11T02:53:05;2.00;;;1.17;;
68866;SDS011;56451;44.804;20.476;2022-09-11T02:55:56;2.20;;;1.10;;
68866;SDS011;56451;44.804;20.476;2022-09-11T02:58:30;2.35;;;0.85;;
68866;SDS011;56451;44.804;20.476;2022-09-11T03:01:01;1.70;;;1.20;;
68866;SDS011;56451;44.804;20.476;2022-09-11T03:03:36;2.47;;;1.13;;
68866;SDS011;56451;44.804;20.476;2022-09-11T03:06:07;3.80;;;1.40;;
68866;SDS011;56451;44.804;20.476;2022-09-11T03:08:35;2.80;;;1.33;;
68866;SDS011;56451;44.804;20.476;2022-09-11T03:11:01;3.67;;;1.25;;
68866;SDS011;56451;44.804;20.476;2022-09-11T03:13:29;2.90;;;1.25;;
68866;SDS011;56451;44.804;20.476;2022-09-11T03:15:56;2.55;;;1.20;;
68866;SDS011;56451;44.804;20.476;2022-09-11T03:18:21;2.77;;;1.10;;
68866;SDS011;56451;44.804;20.476;2022-09-11T03:20:47;2.42;;;0.90;;
68866;SDS011;56451;44.804;20.476;2022-09-11T03:23:14;6.03;;;1.83;;
68866;SDS011;56451;44.804;20.476;2022-09-11T03:25:40;2.67;;;1.13;;
68866;SDS011;56451;44.804;20.476;2022-09-11T03:28:07;2.75;;;1.00;;
68866;SDS011;56451;44.804;20.476;2022-09-11T03:30:33;3.08;;;1.05;;
68866;SDS011;56451;44.804;20.476;2022-09-11T03:32:59;3.13;;;1.55;;
68866;SDS011;56451;44.804;20.476;2022-09-11T03:35:25;3.37;;;1.20;;
68866;SDS011;56451;44.804;20.476;2022-09-11T03:37:52;2.50;;;1.20;;
68866;SDS011;56451;44.804;20.476;2022-09-11T03:40:20;2.88;;;0.98;;
68866;SDS011;56451;44.804;20.476;2022-09-11T03:42:46;4.80;;;1.30;;
68866;SDS011;56451;44.804;20.476;2022-09-11T03:45:12;4.43;;;1.02;;
68866;SDS011;56451;44.804;20.476;2022-09-11T03:47:38;3.57;;;1.30;;
68866;SDS011;56451;44.804;20.476;2022-09-11T03:50:05;2.85;;;1.30;;
68866;SDS011;56451;44.804;20.476;2022-09-11T03:52:35;2.90;;;1.23;;
68866;SDS011;56451;44.804;20.476;2022-09-11T03:55:04;2.15;;;0.90;;
68866;SDS011;56451;44.804;20.476;2022-09-11T03:57:34;2.85;;;1.02;;
68866;SDS011;56451;44.804;20.476;2022-09-11T04:00:01;3.67;;;1.27;;
68866;SDS011;56451;44.804;20.476;2022-09-11T04:02:45;3.17;;;1.10;;
68866;SDS011;56451;44.804;20.476;2022-09-11T04:05:13;3.75;;;1.20;;
68866;SDS011;56451;44.804;20.476;2022-09-11T04:07:39;3.17;;;1.33;;
68866;SDS011;56451;44.804;20.476;2022-09-11T04:10:06;2.40;;;1.35;;
68866;SDS011;56451;44.804;20.476;2022-09-11T04:12:32;3.50;;;1.23;;
68866;SDS011;56451;44.804;20.476;2022-09-11T04:14:59;7.38;;;1.02;;
68866;SDS011;56451;44.804;20.476;2022-09-11T04:17:29;3.00;;;1.00;;
68866;SDS011;56451;44.804;20.476;2022-09-11T04:19:56;2.42;;;1.30;;
68866;SDS011;56451;44.804;20.476;2022-09-11T04:22:23;1.70;;;0.90;;
68866;SDS011;56451;44.804;20.476;2022-09-11T04:24:50;2.33;;;1.30;;
68866;SDS011;56451;44.804;20.476;2022-09-11T04:27:16;4.65;;;1.40;;
68866;SDS011;56451;44.804;20.476;2022-09-11T04:29:44;1.30;;;1.00;;
68866;SDS011;56451;44.804;20.476;2022-09-11T04:32:10;2.35;;;1.10;;
68866;SDS011;56451;44.804;20.476;2022-09-11T04:34:38;3.35;;;1.25;;
68866;SDS011;56451;44.804;20.476;2022-09-11T04:37:04;3.30;;;1.00;;
68866;SDS011;56451;44.804;20.476;2022-09-11T04:39:30;3.20;;;0.90;;
68866;SDS011;56451;44.804;20.476;2022-09-11T04:41:57;3.55;;;1.10;;
68866;SDS011;56451;44.804;20.476;2022-09-11T04:44:22;3.63;;;0.73;;
68866;SDS011;56451;44.804;20.476;2022-09-11T04:46:50;4.30;;;1.00;;
68866;SDS011;56451;44.804;20.476;2022-09-11T04:49:17;2.35;;;1.10;;
68866;SDS011;56451;44.804;20.476;2022-09-11T04:51:44;2.55;;;0.90;;
68866;SDS011;56451;44.804;20.476;2022-09-11T04:54:13;3.53;;;1.08;;
68866;SDS011;56451;44.804;20.476;2022-09-11T04:56:40;2.23;;;0.93;;
68866;SDS011;56451;44.804;20.476;2022-09-11T05:01:43;2.67;;;0.85;;
68866;SDS011;56451;44.804;20.476;2022-09-11T05:04:09;3.40;;;0.75;;
68866;SDS011;56451;44.804;20.476;2022-09-11T05:06:37;2.43;;;0.80;;
68866;SDS011;56451;44.804;20.476;2022-09-11T05:09:08;2.67;;;0.70;;
68866;SDS011;56451;44.804;20.476;2022-09-11T05:11:35;2.95;;;0.85;;
68866;SDS011;56451;44.804;20.476;2022-09-11T05:14:03;1.25;;;0.70;;
68866;SDS011;56451;44.804;20.476;2022-09-11T05:16:33;2.38;;;0.60;;
68866;SDS011;56451;44.804;20.476;2022-09-11T05:18:59;3.43;;;0.83;;
68866;SDS011;56451;44.804;20.476;2022-09-11T05:21:28;2.65;;;0.75;;
68866;SDS011;56451;44.804;20.476;2022-09-11T05:23:55;2.35;;;0.82;;
68866;SDS011;56451;44.804;20.476;2022-09-11T05:26:28;1.20;;;0.68;;
68866;SDS011;56451;44.804;20.476;2022-09-11T05:28:57;3.13;;;1.13;;
68866;SDS011;56451;44.804;20.476;2022-09-11T05:31:25;1.77;;;0.90;;
68866;SDS011;56451;44.804;20.476;2022-09-11T05:33:52;4.75;;;1.25;;
68866;SDS011;56451;44.804;20.476;2022-09-11T05:36:24;2.42;;;0.93;;
68866;SDS011;56451;44.804;20.476;2022-09-11T05:38:51;2.38;;;1.15;;
68866;SDS011;56451;44.804;20.476;2022-09-11T05:41:18;2.35;;;1.10;;
68866;SDS011;56451;44.804;20.476;2022-09-11T05:43:44;1.53;;;0.90;;
68866;SDS011;56451;44.804;20.476;2022-09-11T05:46:11;2.97;;;1.08;;
68866;SDS011;56451;44.804;20.476;2022-09-11T05:48:38;1.38;;;1.10;;
68866;SDS011;56451;44.804;20.476;2022-09-11T05:51:15;2.05;;;0.77;;
68866;SDS011;56451;44.804;20.476;2022-09-11T05:53:47;4.28;;;0.70;;
68866;SDS011;56451;44.804;20.476;2022-09-11T05:56:20;3.60;;;1.20;;
68866;SDS011;56451;44.804;20.476;2022-09-11T05:58:50;2.83;;;0.68;;
68866;SDS011;56451;44.804;20.476;2022-09-11T06:01:19;3.53;;;0.73;;
68866;SDS011;56451;44.804;20.476;2022-09-11T06:03:54;1.58;;;0.90;;
68866;SDS011;56451;44.804;20.476;2022-09-11T06:06:23;2.30;;;1.08;;
68866;SDS011;56451;44.804;20.476;2022-09-11T06:08:49;2.37;;;0.80;;
68866;SDS011;56451;44.804;20.476;2022-09-11T06:11:16;3.00;;;1.17;;
68866;SDS011;56451;44.804;20.476;2022-09-11T06:13:44;1.70;;;0.82;;
68866;SDS011;56451;44.804;20.476;2022-09-11T06:16:13;2.00;;;1.02;;
68866;SDS011;56451;44.804;20.476;2022-09-11T06:18:44;2.47;;;1.05;;
68866;SDS011;56451;44.804;20.476;2022-09-11T06:21:14;2.23;;;1.00;;
68866;SDS011;56451;44.804;20.476;2022-09-11T06:23:49;1.40;;;0.80;;
68866;SDS011;56451;44.804;20.476;2022-09-11T06:26:18;2.88;;;1.00;;
68866;SDS011;56451;44.804;20.476;2022-09-11T06:28:46;1.55;;;1.23;;
68866;SDS011;56451;44.804;20.476;2022-09-11T06:31:14;1.90;;;0.80;;
68866;SDS011;56451;44.804;20.476;2022-09-11T06:33:41;3.53;;;1.00;;
68866;SDS011;56451;44.804;20.476;2022-09-11T06:36:11;3.15;;;0.93;;
68866;SDS011;56451;44.804;20.476;2022-09-11T06:38:39;3.00;;;0.85;;
68866;SDS011;56451;44.804;20.476;2022-09-11T06:41:09;3.70;;;1.33;;
68866;SDS011;56451;44.804;20.476;2022-09-11T06:43:38;3.83;;;1.20;;
68866;SDS011;56451;44.804;20.476;2022-09-11T06:46:09;2.17;;;1.00;;
68866;SDS011;56451;44.804;20.476;2022-09-11T06:48:41;3.00;;;1.30;;
68866;SDS011;56451;44.804;20.476;2022-09-11T06:51:18;1.88;;;1.00;;
68866;SDS011;56451;44.804;20.476;2022-09-11T06:53:52;2.45;;;1.17;;
68866;SDS011;56451;44.804;20.476;2022-09-11T06:56:20;1.70;;;1.20;;
68866;SDS011;56451;44.804;20.476;2022-09-11T06:58:46;2.80;;;1.27;;
68866;SDS011;56451;44.804;20.476;2022-09-11T07:01:14;2.40;;;1.30;;
68866;SDS011;56451;44.804;20.476;2022-09-11T07:03:44;3.75;;;1.30;;
68866;SDS011;56451;44.804;20.476;2022-09-11T07:06:12;1.80;;;1.20;;
68866;SDS011;56451;44.804;20.476;2022-09-11T07:08:41;3.97;;;1.30;;
68866;SDS011;56451;44.804;20.476;2022-09-11T07:11:07;4.23;;;1.50;;
68866;SDS011;56451;44.804;20.476;2022-09-11T07:13:33;4.47;;;1.58;;
68866;SDS011;56451;44.804;20.476;2022-09-11T07:16:03;3.10;;;1.52;;
68866;SDS011;56451;44.804;20.476;2022-09-11T07:18:34;3.08;;;1.60;;
68866;SDS011;56451;44.804;20.476;2022-09-11T07:21:08;4.07;;;1.40;;
68866;SDS011;56451;44.804;20.476;2022-09-11T07:23:38;3.95;;;1.50;;
68866;SDS011;56451;44.804;20.476;2022-09-11T07:26:09;3.00;;;1.75;;
68866;SDS011;56451;44.804;20.476;2022-09-11T07:28:37;2.15;;;1.23;;
68866;SDS011;56451;44.804;20.476;2022-09-11T07:31:08;3.25;;;1.13;;
68866;SDS011;56451;44.804;20.476;2022-09-11T07:33:40;3.40;;;1.47;;
68866;SDS011;56451;44.804;20.476;2022-09-11T07:36:13;2.20;;;1.00;;
68866;SDS011;56451;44.804;20.476;2022-09-11T07:38:42;3.10;;;1.13;;
68866;SDS011;56451;44.804;20.476;2022-09-11T07:41:13;4.60;;;1.33;;
68866;SDS011;56451;44.804;20.476;2022-09-11T07:43:41;2.63;;;1.33;;
68866;SDS011;56451;44.804;20.476;2022-09-11T07:46:11;2.87;;;1.60;;
68866;SDS011;56451;44.804;20.476;2022-09-11T07:48:37;2.72;;;1.00;;
68866;SDS011;56451;44.804;20.476;2022-09-11T07:51:05;4.70;;;1.52;;
68866;SDS011;56451;44.804;20.476;2022-09-11T07:53:34;1.88;;;0.98;;
68866;SDS011;56451;44.804;20.476;2022-09-11T07:56:06;4.35;;;1.38;;
68866;SDS011;56451;44.804;20.476;2022-09-11T07:58:34;3.70;;;0.90;;
68866;SDS011;56451;44.804;20.476;2022-09-11T08:01:03;1.73;;;1.10;;
68866;SDS011;56451;44.804;20.476;2022-09-11T08:03:33;4.50;;;1.15;;
68866;SDS011;56451;44.804;20.476;2022-09-11T08:06:05;2.00;;;1.00;;
68866;SDS011;56451;44.804;20.476;2022-09-11T08:08:34;1.63;;;0.70;;
68866;SDS011;56451;44.804;20.476;2022-09-11T08:11:03;2.63;;;1.00;;
68866;SDS011;56451;44.804;20.476;2022-09-11T08:13:31;2.22;;;1.02;;
68866;SDS011;56451;44.804;20.476;2022-09-11T08:15:58;2.83;;;0.68;;
68866;SDS011;56451;44.804;20.476;2022-09-11T08:18:24;4.03;;;1.20;;
68866;SDS011;56451;44.804;20.476;2022-09-11T08:20:50;2.65;;;1.02;;
68866;SDS011;56451;44.804;20.476;2022-09-11T08:23:17;2.43;;;1.10;;
68866;SDS011;56451;44.804;20.476;2022-09-11T08:25:43;2.47;;;1.10;;
68866;SDS011;56451;44.804;20.476;2022-09-11T08:28:09;1.52;;;0.70;;
68866;SDS011;56451;44.804;20.476;2022-09-11T08:30:35;2.00;;;1.00;;
68866;SDS011;56451;44.804;20.476;2022-09-11T08:33:06;1.63;;;0.90;;
68866;SDS011;56451;44.804;20.476;2022-09-11T08:35:34;2.85;;;1.20;;
68866;SDS011;56451;44.804;20.476;2022-09-11T08:38:00;2.97;;;0.80;;
68866;SDS011;56451;44.804;20.476;2022-09-11T08:40:28;2.15;;;0.70;;
68866;SDS011;56451;44.804;20.476;2022-09-11T08:42:59;1.15;;;0.73;;
68866;SDS011;56451;44.804;20.476;2022-09-11T08:45:29;1.63;;;0.60;;
68866;SDS011;56451;44.804;20.476;2022-09-11T08:47:58;2.00;;;0.75;;
68866;SDS011;56451;44.804;20.476;2022-09-11T08:50:29;3.55;;;0.93;;
68866;SDS011;56451;44.804;20.476;2022-09-11T08:53:04;2.45;;;0.68;;
68866;SDS011;56451;44.804;20.476;2022-09-11T08:55:36;1.83;;;0.60;;
68866;SDS011;56451;44.804;20.476;2022-09-11T09:01:09;1.65;;;0.80;;
68866;SDS011;56451;44.804;20.476;2022-09-11T09:17:20;3.05;;;0.80;;
68866;SDS011;56451;44.804;20.476;2022-09-11T09:19:54;2.03;;;0.75;;
68866;SDS011;56451;44.804;20.476;2022-09-11T09:25:35;1.65;;;0.75;;
68866;SDS011;56451;44.804;20.476;2022-09-11T09:30:45;2.17;;;0.95;;
68866;SDS011;56451;44.804;20.476;2022-09-11T09:36:18;2.30;;;0.57;;
68866;SDS011;56451;44.804;20.476;2022-09-11T09:38:46;2.17;;;0.73;;
68866;SDS011;56451;44.804;20.476;2022-09-11T09:44:17;1.00;;;0.32;;
68866;SDS011;56451;44.804;20.476;2022-09-11T09:46:56;0.93;;;0.50;;
68866;SDS011;56451;44.804;20.476;2022-09-11T09:49:28;1.77;;;0.60;;
68866;SDS011;56451;44.804;20.476;2022-09-11T09:51:58;1.10;;;0.60;;
68866;SDS011;56451;44.804;20.476;2022-09-11T09:54:30;2.03;;;0.75;;
68866;SDS011;56451;44.804;20.476;2022-09-11T09:57:01;1.20;;;0.80;;
68866;SDS011;56451;44.804;20.476;2022-09-11T10:05:14;1.98;;;0.55;;
68866;SDS011;56451;44.804;20.476;2022-09-11T10:07:46;1.30;;;0.68;;
68866;SDS011;56451;44.804;20.476;2022-09-11T10:10:24;1.98;;;0.50;;
68866;SDS011;56451;44.804;20.476;2022-09-11T10:12:57;1.13;;;0.40;;
68866;SDS011;56451;44.804;20.476;2022-09-11T10:15:25;1.90;;;0.20;;
68866;SDS011;56451;44.804;20.476;2022-09-11T10:17:51;1.20;;;0.50;;
68866;SDS011;56451;44.804;20.476;2022-09-11T10:22:44;1.13;;;0.60;;
68866;SDS011;56451;44.804;20.476;2022-09-11T10:25:14;0.90;;;0.50;;
68866;SDS011;56451;44.804;20.476;2022-09-11T10:27:45;2.08;;;0.50;;
68866;SDS011;56451;44.804;20.476;2022-09-11T10:30:51;0.88;;;0.40;;
68866;SDS011;56451;44.804;20.476;2022-09-11T10:35:56;2.33;;;0.60;;
68866;SDS011;56451;44.804;20.476;2022-09-11T10:38:32;1.50;;;0.60;;
68866;SDS011;56451;44.804;20.476;2022-09-11T10:46:02;3.00;;;0.70;;
68866;SDS011;56451;44.804;20.476;2022-09-11T10:51:40;1.98;;;0.60;;
68866;SDS011;56451;44.804;20.476;2022-09-11T11:02:18;3.40;;;0.80;;
68866;SDS011;56451;44.804;20.476;2022-09-11T11:04:48;2.42;;;0.82;;
68866;SDS011;56451;44.804;20.476;2022-09-11T11:15:27;6.95;;;0.90;;
68866;SDS011;56451;44.804;20.476;2022-09-11T11:23:44;2.15;;;1.20;;
68866;SDS011;56451;44.804;20.476;2022-09-11T11:37:41;5.53;;;1.70;;
68866;SDS011;56451;44.804;20.476;2022-09-11T11:51:27;2.45;;;1.13;;
68866;SDS011;56451;44.804;20.476;2022-09-11T11:54:00;4.20;;;1.60;;
68866;SDS011;56451;44.804;20.476;2022-09-11T11:56:36;2.67;;;1.23;;
68866;SDS011;56451;44.804;20.476;2022-09-11T12:02:03;3.50;;;1.35;;
68866;SDS011;56451;44.804;20.476;2022-09-11T12:07:33;4.33;;;2.10;;
68866;SDS011;56451;44.804;20.476;2022-09-11T12:10:02;5.43;;;1.50;;
68866;SDS011;56451;44.804;20.476;2022-09-11T12:12:34;4.75;;;1.50;;
68866;SDS011;56451;44.804;20.476;2022-09-11T12:15:22;3.55;;;1.40;;
68866;SDS011;56451;44.804;20.476;2022-09-11T12:17:56;3.63;;;1.30;;
68866;SDS011;56451;44.804;20.476;2022-09-11T12:20:35;2.17;;;0.93;;
68866;SDS011;56451;44.804;20.476;2022-09-11T12:23:06;5.32;;;1.35;;
68866;SDS011;56451;44.804;20.476;2022-09-11T12:37:04;4.82;;;1.77;;
68866;SDS011;56451;44.804;20.476;2022-09-11T12:39:37;3.78;;;2.05;;
68866;SDS011;56451;44.804;20.476;2022-09-11T12:47:36;3.47;;;1.40;;
68866;SDS011;56451;44.804;20.476;2022-09-11T12:52:30;5.03;;;1.70;;
68866;SDS011;56451;44.804;20.476;2022-09-11T12:55:03;4.17;;;1.93;;
68866;SDS011;56451;44.804;20.476;2022-09-11T12:57:45;3.38;;;1.60;;
68866;SDS011;56451;44.804;20.476;2022-09-11T13:00:19;3.25;;;1.55;;
68866;SDS011;56451;44.804;20.476;2022-09-11T13:02:55;3.50;;;1.70;;
68866;SDS011;56451;44.804;20.476;2022-09-11T13:05:25;4.13;;;1.23;;
68866;SDS011;56451;44.804;20.476;2022-09-11T13:07:59;4.57;;;1.55;;
68866;SDS011;56451;44.804;20.476;2022-09-11T13:10:31;4.35;;;1.92;;
68866;SDS011;56451;44.804;20.476;2022-09-11T13:13:09;5.00;;;2.17;;
68866;SDS011;56451;44.804;20.476;2022-09-11T13:16:16;4.13;;;1.80;;
68866;SDS011;56451;44.804;20.476;2022-09-11T13:18:48;2.87;;;1.57;;
68866;SDS011;56451;44.804;20.476;2022-09-11T13:21:15;3.55;;;1.35;;
68866;SDS011;56451;44.804;20.476;2022-09-11T13:23:43;4.05;;;1.40;;
68866;SDS011;56451;44.804;20.476;2022-09-11T13:26:14;3.80;;;1.85;;
68866;SDS011;56451;44.804;20.476;2022-09-11T13:28:51;2.80;;;1.45;;
68866;SDS011;56451;44.804;20.476;2022-09-11T13:31:41;4.17;;;1.70;;
68866;SDS011;56451;44.804;20.476;2022-09-11T13:34:11;3.95;;;1.80;;
68866;SDS011;56451;44.804;20.476;2022-09-11T13:36:40;4.97;;;2.55;;
68866;SDS011;56451;44.804;20.476;2022-09-11T13:39:06;3.28;;;2.00;;
68866;SDS011;56451;44.804;20.476;2022-09-11T13:41:38;4.32;;;1.75;;
68866;SDS011;56451;44.804;20.476;2022-09-11T13:46:59;6.35;;;1.70;;
68866;SDS011;56451;44.804;20.476;2022-09-11T13:49:32;3.42;;;1.50;;
68866;SDS011;56451;44.804;20.476;2022-09-11T13:52:04;3.33;;;1.80;;
68866;SDS011;56451;44.804;20.476;2022-09-11T13:54:31;5.47;;;1.70;;
68866;SDS011;56451;44.804;20.476;2022-09-11T14:21:34;3.35;;;1.60;;
68866;SDS011;56451;44.804;20.476;2022-09-11T14:24:24;3.83;;;1.35;;
68866;SDS011;56451;44.804;20.476;2022-09-11T14:26:50;4.00;;;1.40;;
68866;SDS011;56451;44.804;20.476;2022-09-11T14:35:05;2.80;;;1.15;;
68866;SDS011;56451;44.804;20.476;2022-09-11T14:37:33;3.65;;;1.10;;
68866;SDS011;56451;44.804;20.476;2022-09-11T14:40:14;1.93;;;0.93;;
68866;SDS011;56451;44.804;20.476;2022-09-11T14:42:41;2.72;;;1.33;;
68866;SDS011;56451;44.804;20.476;2022-09-11T14:45:25;2.60;;;1.02;;
68866;SDS011;56451;44.804;20.476;2022-09-11T14:47:51;2.53;;;1.00;;
68866;SDS011;56451;44.804;20.476;2022-09-11T14:50:17;1.90;;;1.00;;
68866;SDS011;56451;44.804;20.476;2022-09-11T14:52:43;1.83;;;1.30;;
68866;SDS011;56451;44.804;20.476;2022-09-11T14:55:17;2.53;;;0.90;;
68866;SDS011;56451;44.804;20.476;2022-09-11T14:57:43;2.05;;;1.13;;
68866;SDS011;56451;44.804;20.476;2022-09-11T15:00:14;3.47;;;1.20;;
68866;SDS011;56451;44.804;20.476;2022-09-11T15:02:41;2.30;;;1.17;;
68866;SDS011;56451;44.804;20.476;2022-09-11T15:05:13;2.83;;;0.70;;
68866;SDS011;56451;44.804;20.476;2022-09-11T15:07:41;3.88;;;1.50;;
68866;SDS011;56451;44.804;20.476;2022-09-11T15:10:10;4.10;;;1.23;;
68866;SDS011;56451;44.804;20.476;2022-09-11T15:12:36;3.55;;;1.20;;
68866;SDS011;56451;44.804;20.476;2022-09-11T15:15:02;2.60;;;1.00;;
68866;SDS011;56451;44.804;20.476;2022-09-11T15:17:28;3.22;;;1.17;;
68866;SDS011;56451;44.804;20.476;2022-09-11T15:19:58;4.32;;;1.42;;
68866;SDS011;56451;44.804;20.476;2022-09-11T15:22:24;3.05;;;1.20;;
68866;SDS011;56451;44.804;20.476;2022-09-11T15:24:50;4.07;;;1.00;;
68866;SDS011;56451;44.804;20.476;2022-09-11T15:27:16;2.38;;;0.88;;
68866;SDS011;56451;44.804;20.476;2022-09-11T15:29:43;2.67;;;1.08;;
68866;SDS011;56451;44.804;20.476;2022-09-11T15:32:10;2.28;;;0.80;;
68866;SDS011;56451;44.804;20.476;2022-09-11T15:34:36;1.95;;;1.00;;
68866;SDS011;56451;44.804;20.476;2022-09-11T15:37:03;7.53;;;1.20;;
68866;SDS011;56451;44.804;20.476;2022-09-11T15:39:30;2.60;;;0.98;;
68866;SDS011;56451;44.804;20.476;2022-09-11T15:41:56;1.95;;;1.00;;
68866;SDS011;56451;44.804;20.476;2022-09-11T15:44:23;1.73;;;1.05;;
68866;SDS011;56451;44.804;20.476;2022-09-11T15:46:52;1.90;;;1.03;;
68866;SDS011;56451;44.804;20.476;2022-09-11T15:49:19;1.88;;;0.90;;
68866;SDS011;56451;44.804;20.476;2022-09-11T15:51:46;1.55;;;0.80;;
68866;SDS011;56451;44.804;20.476;2022-09-11T15:54:13;3.95;;;1.35;;
68866;SDS011;56451;44.804;20.476;2022-09-11T15:56:40;2.65;;;1.20;;
68866;SDS011;56451;44.804;20.476;2022-09-11T15:59:07;2.97;;;1.10;;
68866;SDS011;56451;44.804;20.476;2022-09-11T16:01:35;1.83;;;1.00;;
68866;SDS011;56451;44.804;20.476;2022-09-11T16:04:05;3.15;;;1.10;;
68866;SDS011;56451;44.804;20.476;2022-09-11T16:06:34;1.52;;;0.80;;
68866;SDS011;56451;44.804;20.476;2022-09-11T16:09:05;1.30;;;0.80;;
68866;SDS011;56451;44.804;20.476;2022-09-11T16:11:36;2.72;;;1.17;;
68866;SDS011;56451;44.804;20.476;2022-09-11T16:14:04;5.82;;;0.98;;
68866;SDS011;56451;44.804;20.476;2022-09-11T16:16:29;1.38;;;0.75;;
68866;SDS011;56451;44.804;20.476;2022-09-11T16:18:55;1.43;;;0.70;;
68866;SDS011;56451;44.804;20.476;2022-09-11T16:21:22;2.58;;;0.80;;
68866;SDS011;56451;44.804;20.476;2022-09-11T16:23:49;2.00;;;0.73;;
68866;SDS011;56451;44.804;20.476;2022-09-11T16:26:16;1.33;;;0.65;;
68866;SDS011;56451;44.804;20.476;2022-09-11T16:28:43;3.88;;;1.20;;
68866;SDS011;56451;44.804;20.476;2022-09-11T16:31:09;2.03;;;0.80;;
68866;SDS011;56451;44.804;20.476;2022-09-11T16:33:36;1.77;;;0.60;;
68866;SDS011;56451;44.804;20.476;2022-09-11T16:36:12;2.50;;;1.10;;
68866;SDS011;56451;44.804;20.476;2022-09-11T16:38:41;2.38;;;1.00;;
68866;SDS011;56451;44.804;20.476;2022-09-11T16:41:08;4.10;;;1.20;;
68866;SDS011;56451;44.804;20.476;2022-09-11T16:43:37;2.28;;;0.80;;
68866;SDS011;56451;44.804;20.476;2022-09-11T16:46:05;3.58;;;0.95;;
68866;SDS011;56451;44.804;20.476;2022-09-11T16:48:33;1.20;;;0.73;;
68866;SDS011;56451;44.804;20.476;2022-09-11T16:51:01;3.60;;;0.80;;
68866;SDS011;56451;44.804;20.476;2022-09-11T16:53:28;2.83;;;0.90;;
68866;SDS011;56451;44.804;20.476;2022-09-11T16:55:56;2.35;;;0.90;;
68866;SDS011;56451;44.804;20.476;2022-09-11T16:58:22;2.72;;;0.80;;
68866;SDS011;56451;44.804;20.476;2022-09-11T17:00:48;2.00;;;0.90;;
68866;SDS011;56451;44.804;20.476;2022-09-11T17:03:14;1.70;;;1.20;;
68866;SDS011;56451;44.804;20.476;2022-09-11T17:05:51;4.85;;;1.20;;
68866;SDS011;56451;44.804;20.476;2022-09-11T17:08:19;2.20;;;1.42;;
68866;SDS011;56451;44.804;20.476;2022-09-11T17:10:52;2.08;;;1.38;;
68866;SDS011;56451;44.804;20.476;2022-09-11T17:13:20;3.63;;;1.35;;
68866;SDS011;56451;44.804;20.476;2022-09-11T17:15:47;2.33;;;1.00;;
68866;SDS011;56451;44.804;20.476;2022-09-11T17:18:14;4.35;;;1.42;;
68866;SDS011;56451;44.804;20.476;2022-09-11T17:20:41;2.05;;;1.30;;
68866;SDS011;56451;44.804;20.476;2022-09-11T17:23:07;2.00;;;1.20;;
68866;SDS011;56451;44.804;20.476;2022-09-11T17:25:38;2.40;;;1.20;;
68866;SDS011;56451;44.804;20.476;2022-09-11T17:28:06;1.43;;;1.10;;
68866;SDS011;56451;44.804;20.476;2022-09-11T17:30:35;2.63;;;1.20;;
68866;SDS011;56451;44.804;20.476;2022-09-11T17:33:03;3.60;;;1.10;;
68866;SDS011;56451;44.804;20.476;2022-09-11T17:35:28;2.45;;;1.00;;
68866;SDS011;56451;44.804;20.476;2022-09-11T17:37:54;2.50;;;1.27;;
68866;SDS011;56451;44.804;20.476;2022-09-11T17:40:21;2.92;;;1.10;;
68866;SDS011;56451;44.804;20.476;2022-09-11T17:42:47;3.28;;;0.80;;
68866;SDS011;56451;44.804;20.476;2022-09-11T17:45:13;2.03;;;0.93;;
68866;SDS011;56451;44.804;20.476;2022-09-11T17:47:42;1.90;;;0.90;;
68866;SDS011;56451;44.804;20.476;2022-09-11T17:50:08;2.00;;;0.90;;
68866;SDS011;56451;44.804;20.476;2022-09-11T17:52:35;3.35;;;1.05;;